EYSA/SQQ METAR and TAF weather

Enter ICAO airport designator
Station Type Date Time Source
EYSA METAR 2018/01/16 08:50 UTC NOAA

EYSA 160850Z 14020KT CAVOK M08/M12 Q1008 R14L/29//95 R14R/29//95 BLU NOSIG


Station Type Date Time Source
EYSA Decoded METAR 2018/01/16 08:50 UTC NOAA

Siauliai Intl./Mil., Lithuania (EYSA) 55-53-38N 023-23-42E
Jan 16, 2018 - 03:50 AM EST / 2018.01.16 0850 UTC
Wind: from the SE (140 degrees) at 23 MPH (20 KT):0
Visibility: greater than 7 mile(s):0
Temperature: 17 F (-8 C)
Windchill: 0 F (-18 C):1
Dew Point: 10 F (-12 C)
Relative Humidity: 72%
Pressure (altimeter): 29.77 in. Hg (1008 hPa)
ob: EYSA 160850Z 14020KT CAVOK M08/M12 Q1008 R14L/29//95 R14R/29//95 BLU NOSIG
cycle: 9

Station Type Date Time Source
EYSA TAF 2017/11/29 15:03 UTC NOAA

TAF TAF EYSA 291401Z 2915/3003 16008KT 3000 BR OVC004
TEMPO 2915/2918 1600 RASN BKN002
TEMPO 2918/3003 1000 SNRA OVC002


Example: see airport list